Pops — WDC8157 — position and weather

sailwx.info

Track history (hours):
 
Tides and Currents Weather Stations Pressure Air Temp Water Temp Dewpoint Dewpoint Depression Visibility Wind Speed Wind Dir Waves Ship Positions

Pops

Owner: GORE MARINE CORPORATION, MERIDIAN, GA. More information available from US FCC via Universal Licensing System and Coast Guard Vessel Documentation Center.

Last reported at 2017-Dec-16 14:38 UTC. Time now 2017-Dec-17 02:43 UTC.
Position N 38°48' W 075°10'.

Length 22 m; draft 3.5 m.

Type: Tug. MMSI: 367082540.

Date/timePositionNaut miles runAvg speedWind from/ knotsBaromVisibWave heightAir tempDewpointWater temp
2017-Dec-16 14:38N 38°48' W 075°10'0 0.0
2017-Dec-16 14:23N 38°48' W 075°10'0 0.0
2017-Dec-16 14:00N 38°48' W 075°10'0 0.0
2017-Dec-16 13:13N 38°48' W 075°10'0 0.0
2017-Dec-16 12:55N 38°48' W 075°10'0 0.0
2017-Dec-16 12:19N 38°48' W 075°10'0 0.0
2017-Dec-16 11:03N 38°48' W 075°10'0 0.0
2017-Dec-16 10:06N 38°48' W 075°10'0 0.0
2017-Dec-16 09:51N 38°48' W 075°10'0 0.0
2017-Dec-16 09:28N 38°48' W 075°10'0 0.0
2017-Dec-16 08:57N 38°48' W 075°10'0 0.0
2017-Dec-16 07:07N 38°48' W 075°10'0 0.0
2017-Dec-16 06:46N 38°48' W 075°10'0 0.0
2017-Dec-16 06:22N 38°48' W 075°10'0 0.0
2017-Dec-14 10:47N 38°48' W 075°10'0 0.2
2017-Dec-14 10:28N 38°48' W 075°10'0 0.0
2017-Dec-14 09:52N 38°48' W 075°10'0 0.0
2017-Dec-14 09:27N 38°48' W 075°10'0 0.0
2017-Dec-14 08:59N 38°48' W 075°10'  
2017-Dec-10 08:22N 39°23' W 074°26'20 0.9
2017-Dec-09 09:11N 39°07' W 074°40'1 3.3
2017-Dec-09 08:56N 39°06' W 074°40'2 3.3
2017-Dec-09 08:28N 39°05' W 074°41'2 3.3
2017-Dec-09 07:58N 39°03' W 074°43'2 3.3
2017-Dec-09 07:18N 39°02' W 074°44'  
Track history (hours):
 
Tides and Currents Weather Stations Pressure Air Temp Water Temp Dewpoint Dewpoint Depression Visibility Wind Speed Wind Dir Waves Ship Positions

Pops

Owner: GORE MARINE CORPORATION, MERIDIAN, GA. More information available from US FCC via Universal Licensing System and Coast Guard Vessel Documentation Center.

Last reported at 2017-Dec-16 14:38 UTC. Time now 2017-Dec-17 02:43 UTC.
Position N 38°48' W 075°10'.

Length 22 m; draft 3.5 m.

Type: Tug. MMSI: 367082540.

Date/timePositionNaut miles runAvg speedWind from/ knotsBaromVisibWave heightAir tempDewpointWater temp
2017-Dec-16 14:38N 38°48' W 075°10'0 0.0
2017-Dec-16 14:23N 38°48' W 075°10'0 0.0
2017-Dec-16 14:00N 38°48' W 075°10'0 0.0
2017-Dec-16 13:13N 38°48' W 075°10'0 0.0
2017-Dec-16 12:55N 38°48' W 075°10'0 0.0
2017-Dec-16 12:19N 38°48' W 075°10'0 0.0
2017-Dec-16 11:03N 38°48' W 075°10'0 0.0
2017-Dec-16 10:06N 38°48' W 075°10'0 0.0
2017-Dec-16 09:51N 38°48' W 075°10'0 0.0
2017-Dec-16 09:28N 38°48' W 075°10'0 0.0
2017-Dec-16 08:57N 38°48' W 075°10'0 0.0
2017-Dec-16 07:07N 38°48' W 075°10'0 0.0
2017-Dec-16 06:46N 38°48' W 075°10'0 0.0
2017-Dec-16 06:22N 38°48' W 075°10'0 0.0
2017-Dec-14 10:47N 38°48' W 075°10'0 0.2
2017-Dec-14 10:28N 38°48' W 075°10'0 0.0
2017-Dec-14 09:52N 38°48' W 075°10'0 0.0
2017-Dec-14 09:27N 38°48' W 075°10'0 0.0
2017-Dec-14 08:59N 38°48' W 075°10'  
2017-Dec-10 08:22N 39°23' W 074°26'20 0.9
2017-Dec-09 09:11N 39°07' W 074°40'1 3.3
2017-Dec-09 08:56N 39°06' W 074°40'2 3.3
2017-Dec-09 08:28N 39°05' W 074°41'2 3.3
2017-Dec-09 07:58N 39°03' W 074°43'2 3.3
2017-Dec-09 07:18N 39°02' W 074°44'  

Dump ship's entire track history